createdAt,value
2023-03-18T00:01:01.546Z,67.76
2023-03-18T00:03:28.684Z,66.44
2023-03-18T00:06:10.273Z,66.43
2023-03-18T00:08:39.449Z,66.65
2023-03-18T00:11:07.883Z,67.04
2023-03-18T00:13:35.058Z,66.93
2023-03-18T00:16:02.759Z,66.50
2023-03-18T00:18:31.581Z,68.32
2023-03-18T00:21:01.086Z,67.82
2023-03-18T00:23:28.500Z,66.83
2023-03-18T00:25:57.205Z,66.94
2023-03-18T00:28:24.683Z,67.55
2023-03-18T00:30:51.779Z,68.78
2023-03-18T00:33:19.029Z,68.48
2023-03-18T00:35:47.531Z,68.75
2023-03-18T00:38:21.174Z,68.39
2023-03-18T00:41:01.383Z,69.72
2023-03-18T00:43:33.597Z,71.61
2023-03-18T00:46:00.925Z,71.87
2023-03-18T00:48:28.034Z,72.74
2023-03-18T00:50:54.804Z,73.61
2023-03-18T00:53:23.615Z,75.02
2023-03-18T00:55:50.590Z,76.79
2023-03-18T00:58:17.340Z,75.02
2023-03-18T01:00:44.282Z,76.72
2023-03-18T01:03:12.155Z,79.84
2023-03-18T01:05:39.652Z,79.04
2023-03-18T01:08:06.773Z,78.72
2023-03-18T01:10:34.398Z,78.50
2023-03-18T01:13:01.409Z,79.36
2023-03-18T01:15:29.613Z,79.01
2023-03-18T01:17:57.040Z,79.72
2023-03-18T01:20:24.890Z,78.88
2023-03-18T01:22:51.600Z,78.69
2023-03-18T01:25:18.757Z,79.07
2023-03-18T01:27:45.482Z,78.43
2023-03-18T01:30:13.498Z,78.63
2023-03-18T01:32:41.283Z,78.79
2023-03-18T01:35:08.588Z,79.59
2023-03-18T01:37:35.536Z,80.76
2023-03-18T01:40:02.476Z,81.52
2023-03-18T01:42:29.307Z,80.08
2023-03-18T01:45:29.926Z,81.39
2023-03-18T01:47:58.510Z,84.39
2023-03-18T01:50:34.433Z,88.65
2023-03-18T01:53:09.756Z,87.26
2023-03-18T01:55:38.419Z,86.42
2023-03-18T01:58:13.454Z,86.67
2023-03-18T02:00:46.900Z,86.70
2023-03-18T02:03:14.062Z,86.46
2023-03-18T02:05:43.383Z,85.06
2023-03-18T02:08:10.145Z,85.67
2023-03-18T02:10:38.219Z,84.09
2023-03-18T02:13:08.484Z,84.42
2023-03-18T02:15:40.147Z,84.04
2023-03-18T02:18:29.858Z,82.89
2023-03-18T02:21:15.819Z,83.19
2023-03-18T02:24:24.671Z,83.10
2023-03-18T02:27:02.489Z,86.04
2023-03-18T02:29:33.195Z,85.84
2023-03-18T02:32:02.896Z,86.83
2023-03-18T02:34:30.936Z,85.79
2023-03-18T02:36:57.977Z,87.40
2023-03-18T02:39:24.915Z,90.72
2023-03-18T02:41:52.597Z,88.13
2023-03-18T02:44:20.859Z,90.96
2023-03-18T02:46:47.665Z,91.12
2023-03-18T02:49:15.477Z,92.58
2023-03-18T02:51:42.316Z,90.93
2023-03-18T02:54:12.543Z,91.18
2023-03-18T02:56:41.187Z,90.48
2023-03-18T02:59:08.418Z,91.03
2023-03-18T03:01:37.297Z,92.56
2023-03-18T03:04:05.255Z,94.72
2023-03-18T03:06:32.079Z,96.96
2023-03-18T03:09:00.573Z,96.78
2023-03-18T03:11:27.705Z,97.03
2023-03-18T03:13:54.595Z,98.55
2023-03-18T03:16:21.624Z,101.19
2023-03-18T03:18:48.349Z,101.51
2023-03-18T03:21:15.336Z,100.25
2023-03-18T03:23:46.149Z,99.22
2023-03-18T03:26:13.584Z,101.17
2023-03-18T03:28:40.513Z,96.80
2023-03-18T03:31:07.361Z,97.73
2023-03-18T03:33:34.501Z,96.94
2023-03-18T03:36:01.214Z,98.71
2023-03-18T03:38:28.468Z,100.06
2023-03-18T03:40:55.425Z,101.18
2023-03-18T03:43:22.651Z,102.15
2023-03-18T03:45:49.657Z,103.26
2023-03-18T03:48:16.807Z,103.54
2023-03-18T03:50:43.473Z,103.40
2023-03-18T03:53:10.682Z,104.95
2023-03-18T03:55:37.859Z,106.09
2023-03-18T03:58:19.502Z,106.37
2023-03-18T04:01:01.169Z,104.97
2023-03-18T04:03:42.919Z,105.37
2023-03-18T04:06:24.598Z,105.26
2023-03-18T04:09:06.229Z,104.28
2023-03-18T04:11:48.500Z,104.81
2023-03-18T04:14:30.360Z,103.56
2023-03-18T04:17:12.046Z,101.82
2023-03-18T04:19:53.616Z,101.02
2023-03-18T04:22:36.224Z,100.50
2023-03-18T04:25:17.937Z,101.45
2023-03-18T04:27:59.693Z,102.77
2023-03-18T04:30:41.292Z,102.47
2023-03-18T04:33:22.975Z,101.16
2023-03-18T04:36:04.961Z,100.97
2023-03-18T04:38:46.778Z,102.83
2023-03-18T04:41:28.437Z,100.86
2023-03-18T04:44:10.123Z,101.41
2023-03-18T04:46:53.778Z,102.76
2023-03-18T04:49:35.661Z,101.35
2023-03-18T04:52:17.378Z,101.25
2023-03-18T04:54:59.029Z,104.21
2023-03-18T04:57:42.575Z,102.50
2023-03-18T05:00:24.396Z,105.08
2023-03-18T05:03:07.393Z,105.08
2023-03-18T05:05:50.623Z,105.27
2023-03-18T05:08:32.338Z,103.44
2023-03-18T05:11:15.082Z,105.17
2023-03-18T05:13:56.890Z,104.85
2023-03-18T05:16:42.719Z,101.25
2023-03-18T05:19:28.197Z,101.86
2023-03-18T05:22:15.394Z,98.71
2023-03-18T05:25:00.613Z,97.94
2023-03-18T05:27:47.666Z,98.36
2023-03-18T05:30:34.422Z,99.80
2023-03-18T05:33:22.709Z,100.37
2023-03-18T05:36:09.298Z,100.37
2023-03-18T05:38:54.561Z,100.95
2023-03-18T05:41:39.917Z,101.76
2023-03-18T05:44:25.883Z,101.88
2023-03-18T05:47:11.480Z,100.76
2023-03-18T05:49:56.839Z,101.80
2023-03-18T05:52:42.906Z,103.17
2023-03-18T05:55:28.497Z,102.75
2023-03-18T05:58:13.802Z,102.49
2023-03-18T06:01:00.151Z,101.54
2023-03-18T06:03:45.420Z,101.51
2023-03-18T06:06:30.721Z,101.60
2023-03-18T06:09:16.600Z,102.25
2023-03-18T06:12:02.191Z,105.06
2023-03-18T06:14:47.724Z,105.86
2023-03-18T06:17:34.016Z,102.99
2023-03-18T06:20:19.550Z,104.06
2023-03-18T06:23:05.382Z,106.63
2023-03-18T06:25:50.961Z,108.16
2023-03-18T06:28:36.176Z,107.25
2023-03-18T06:31:22.782Z,103.78
2023-03-18T06:34:08.025Z,101.78
2023-03-18T06:36:53.324Z,102.89
2023-03-18T06:39:40.770Z,102.92
2023-03-18T06:42:26.703Z,102.25
2023-03-18T06:45:13.229Z,101.72
2023-03-18T06:48:00.864Z,101.76
2023-03-18T06:50:46.374Z,101.94
2023-03-18T06:53:31.556Z,101.96
2023-03-18T06:56:16.632Z,101.41
2023-03-18T06:59:01.574Z,102.26
2023-03-18T07:01:47.131Z,106.23
2023-03-18T07:04:33.864Z,103.50
2023-03-18T07:07:19.571Z,103.02
2023-03-18T07:10:11.698Z,103.07
2023-03-18T07:12:57.852Z,103.63
2023-03-18T07:15:43.612Z,103.56
2023-03-18T07:18:29.170Z,103.66
2023-03-18T07:21:14.489Z,103.90
2023-03-18T07:23:59.775Z,102.63
2023-03-18T07:26:45.489Z,103.06
2023-03-18T07:29:30.755Z,102.50
2023-03-18T07:32:15.983Z,102.70
2023-03-18T07:35:02.989Z,101.77
2023-03-18T07:37:48.592Z,101.28
2023-03-18T07:40:34.213Z,101.41
2023-03-18T07:43:19.494Z,101.90
2023-03-18T07:46:05.778Z,101.82
2023-03-18T07:48:51.861Z,102.45
2023-03-18T07:51:37.394Z,102.13
2023-03-18T07:54:24.622Z,101.64
2023-03-18T07:57:10.544Z,102.99
2023-03-18T07:59:56.279Z,100.06
2023-03-18T08:02:42.231Z,100.90
2023-03-18T08:05:27.649Z,102.42
2023-03-18T08:08:12.766Z,101.71
2023-03-18T08:11:00.496Z,101.75
2023-03-18T08:13:45.866Z,101.70
2023-03-18T08:16:31.192Z,102.11
2023-03-18T08:19:16.770Z,101.91
2023-03-18T08:22:02.553Z,102.11
2023-03-18T08:24:48.340Z,101.76
2023-03-18T08:27:33.619Z,101.27
2023-03-18T08:30:19.421Z,101.99
2023-03-18T08:33:04.824Z,101.09
2023-03-18T08:35:50.259Z,101.81
2023-03-18T08:38:35.514Z,101.89
2023-03-18T08:41:20.836Z,101.87
2023-03-18T08:44:10.881Z,101.70
2023-03-18T08:46:55.950Z,101.37
2023-03-18T08:49:41.485Z,99.93
2023-03-18T08:52:27.010Z,98.13
2023-03-18T08:55:12.360Z,98.81
2023-03-18T08:57:58.672Z,97.13
2023-03-18T09:00:43.806Z,97.16
2023-03-18T09:03:30.316Z,97.04
2023-03-18T09:06:16.681Z,96.27
2023-03-18T09:09:01.948Z,96.07
2023-03-18T09:11:47.900Z,95.56
2023-03-18T09:14:33.137Z,94.65
2023-03-18T09:17:18.327Z,95.10
2023-03-18T09:20:05.249Z,94.90
2023-03-18T09:22:52.129Z,91.92
2023-03-18T09:25:37.241Z,87.35
2023-03-18T09:28:22.850Z,85.58
2023-03-18T09:31:08.378Z,86.22
2023-03-18T09:33:53.537Z,87.97
2023-03-18T09:36:38.826Z,86.55
2023-03-18T09:39:24.151Z,88.23
2023-03-18T09:42:32.671Z,89.15
2023-03-18T09:45:24.971Z,90.37
2023-03-18T09:48:32.310Z,90.89
2023-03-18T09:51:20.512Z,90.63
2023-03-18T09:54:33.272Z,91.36
2023-03-18T09:57:28.744Z,92.67
2023-03-18T10:00:26.005Z,92.42
2023-03-18T10:03:15.478Z,92.14
2023-03-18T10:06:22.067Z,88.49
2023-03-18T10:09:27.018Z,86.64
2023-03-18T10:12:35.718Z,80.75
2023-03-18T10:15:41.562Z,79.60
2023-03-18T10:18:33.803Z,78.59
2023-03-18T10:21:42.425Z,78.27
2023-03-18T10:24:44.422Z,78.58
2023-03-18T10:27:56.674Z,75.46
2023-03-18T10:31:14.514Z,74.37
2023-03-18T10:34:06.527Z,70.00
2023-03-18T10:37:13.390Z,68.16
2023-03-18T10:39:59.685Z,67.04
2023-03-18T10:42:45.882Z,70.19
2023-03-18T10:45:34.329Z,76.98
2023-03-18T10:48:35.097Z,77.78
2023-03-18T10:51:32.979Z,74.19
2023-03-18T10:54:23.302Z,77.65
2023-03-18T10:57:27.224Z,81.66
2023-03-18T11:00:28.459Z,84.49
2023-03-18T11:03:33.179Z,85.32
2023-03-18T11:06:35.971Z,87.69
2023-03-18T11:09:23.534Z,88.37
2023-03-18T11:12:24.280Z,88.90
2023-03-18T11:15:13.563Z,88.99
2023-03-18T11:18:02.546Z,88.15
2023-03-18T11:20:55.506Z,88.54
2023-03-18T11:24:10.443Z,89.83
2023-03-18T11:26:57.494Z,89.84
2023-03-18T11:29:54.308Z,89.40
2023-03-18T11:32:58.505Z,89.41
2023-03-18T11:35:50.140Z,89.55
2023-03-18T11:38:37.117Z,87.12
2023-03-18T11:41:30.905Z,88.33
2023-03-18T11:44:24.400Z,88.61
2023-03-18T11:47:18.763Z,88.79
2023-03-18T11:50:05.455Z,90.48
2023-03-18T11:52:55.453Z,90.73
2023-03-18T11:55:47.790Z,91.76
2023-03-18T11:58:52.834Z,91.85
2023-03-18T12:01:41.375Z,91.89
2023-03-18T12:04:33.900Z,92.04
2023-03-18T12:07:47.308Z,91.88
2023-03-18T12:10:41.020Z,92.42
2023-03-18T12:13:44.166Z,92.20
2023-03-18T12:16:44.930Z,91.72
2023-03-18T12:19:41.978Z,92.00
2023-03-18T12:22:33.265Z,91.82
2023-03-18T12:25:33.045Z,91.05
2023-03-18T12:28:31.250Z,89.76
2023-03-18T12:31:30.382Z,90.50
2023-03-18T12:34:55.114Z,91.11
2023-03-18T12:38:08.475Z,90.97
2023-03-18T12:41:06.728Z,92.17
2023-03-18T12:43:58.469Z,91.89
2023-03-18T12:46:50.694Z,92.72
2023-03-18T12:49:45.103Z,92.34
2023-03-18T12:52:43.822Z,92.10
2023-03-18T12:55:51.904Z,92.42
2023-03-18T12:58:42.902Z,93.43
2023-03-18T13:01:47.519Z,94.27
2023-03-18T13:04:36.428Z,93.19
2023-03-18T13:07:31.140Z,92.78
2023-03-18T13:10:24.236Z,91.25
2023-03-18T13:13:11.882Z,91.47
2023-03-18T13:15:57.977Z,90.05
2023-03-18T13:18:51.969Z,89.83
2023-03-18T13:21:44.072Z,89.66
2023-03-18T13:24:43.197Z,88.47
2023-03-18T13:27:52.829Z,89.32
2023-03-18T13:30:54.044Z,89.73
2023-03-18T13:34:11.974Z,88.34
2023-03-18T13:37:27.633Z,87.04
2023-03-18T13:40:19.193Z,82.58
2023-03-18T13:43:05.706Z,78.72
2023-03-18T13:45:53.623Z,75.41
2023-03-18T13:48:41.417Z,67.98
2023-03-18T13:51:29.490Z,66.35
2023-03-18T13:54:18.974Z,61.44
2023-03-18T13:57:30.371Z,64.53
2023-03-18T14:00:29.103Z,66.59
2023-03-18T14:03:23.051Z,68.42
2023-03-18T14:06:08.569Z,70.73
2023-03-18T14:08:54.393Z,70.81
2023-03-18T14:11:46.877Z,73.25
2023-03-18T14:14:40.525Z,71.19
2023-03-18T14:17:39.024Z,67.12
2023-03-18T14:20:39.820Z,63.15
2023-03-18T14:23:44.436Z,61.73
2023-03-18T14:26:31.499Z,57.69
2023-03-18T14:29:26.704Z,59.25
2023-03-18T14:32:38.707Z,60.09
2023-03-18T14:35:29.427Z,57.64
2023-03-18T14:38:24.894Z,58.86
2023-03-18T14:41:26.921Z,60.17
2023-03-18T14:44:42.650Z,58.61
2023-03-18T14:47:40.556Z,60.02
2023-03-18T14:50:47.150Z,60.25
2023-03-18T14:53:32.560Z,60.78
2023-03-18T14:56:21.161Z,62.67
2023-03-18T14:59:08.797Z,64.16
2023-03-18T15:01:55.401Z,70.77
2023-03-18T15:04:52.647Z,71.36
2023-03-18T15:07:41.302Z,75.19
2023-03-18T15:10:30.494Z,77.92
2023-03-18T15:13:21.957Z,77.88
2023-03-18T15:16:12.141Z,79.10
2023-03-18T15:18:57.596Z,79.85
2023-03-18T15:21:42.967Z,79.46
2023-03-18T15:24:28.306Z,78.24
2023-03-18T15:27:20.650Z,78.71
2023-03-18T15:30:10.859Z,76.36
2023-03-18T15:33:08.455Z,74.96
2023-03-18T15:35:55.862Z,73.40
2023-03-18T15:38:47.894Z,73.48
2023-03-18T15:41:33.159Z,74.63
2023-03-18T15:44:25.280Z,74.86
2023-03-18T15:47:20.248Z,75.39
2023-03-18T15:50:26.239Z,75.67
2023-03-18T15:53:26.734Z,75.93
2023-03-18T15:56:43.131Z,77.63
2023-03-18T15:59:31.155Z,76.45
2023-03-18T16:02:18.621Z,78.01
2023-03-18T16:05:14.712Z,78.69
2023-03-18T16:08:00.200Z,79.14
2023-03-18T16:10:46.729Z,79.17
2023-03-18T16:13:36.683Z,80.75
2023-03-18T16:16:26.167Z,81.23
2023-03-18T16:19:32.738Z,81.53
2023-03-18T16:22:18.469Z,83.04
2023-03-18T16:25:04.184Z,83.82
2023-03-18T16:27:51.146Z,84.15
2023-03-18T16:30:40.033Z,84.58
2023-03-18T16:33:26.178Z,84.74
2023-03-18T16:36:22.508Z,84.64
2023-03-18T16:39:14.096Z,84.75
2023-03-18T16:42:00.397Z,84.61
2023-03-18T16:44:45.625Z,85.80
2023-03-18T16:47:31.760Z,87.50
2023-03-18T16:50:22.452Z,86.93
2023-03-18T16:53:20.313Z,87.66
2023-03-18T16:56:08.446Z,88.12
2023-03-18T16:58:53.840Z,88.80
2023-03-18T17:01:38.986Z,88.40
2023-03-18T17:04:35.221Z,89.08
2023-03-18T17:07:20.412Z,90.18
2023-03-18T17:10:06.438Z,90.77
2023-03-18T17:13:05.940Z,91.46
2023-03-18T17:15:51.364Z,92.57
2023-03-18T17:18:36.634Z,93.16
2023-03-18T17:21:22.260Z,94.43
2023-03-18T17:24:08.191Z,94.96
2023-03-18T17:26:55.119Z,95.49
2023-03-18T17:29:41.102Z,96.73
2023-03-18T17:32:27.353Z,95.74
2023-03-18T17:35:21.125Z,97.17
2023-03-18T17:38:06.593Z,97.78
2023-03-18T17:40:52.947Z,98.22
2023-03-18T17:43:40.186Z,98.52
2023-03-18T17:46:25.243Z,98.70
2023-03-18T17:49:14.295Z,99.99
2023-03-18T17:52:00.103Z,100.45
2023-03-18T17:54:45.322Z,99.72
2023-03-18T17:57:32.192Z,99.39
2023-03-18T18:00:27.206Z,99.17
2023-03-18T18:03:22.828Z,99.04
2023-03-18T18:06:11.763Z,99.85
2023-03-18T18:09:02.241Z,100.86
2023-03-18T18:11:48.541Z,101.27
2023-03-18T18:14:34.275Z,101.86
2023-03-18T18:17:19.495Z,102.18
2023-03-18T18:20:06.085Z,102.67
2023-03-18T18:22:54.807Z,102.88
2023-03-18T18:25:39.957Z,103.15
2023-03-18T18:28:39.340Z,103.54
2023-03-18T18:41:21.969Z,106.04
2023-03-18T18:44:08.009Z,106.43
2023-03-18T18:46:53.881Z,106.74
2023-03-18T18:49:40.883Z,106.70
2023-03-18T18:52:26.476Z,106.31
2023-03-18T18:55:11.931Z,106.21
2023-03-18T18:57:57.217Z,105.98
2023-03-18T19:00:42.739Z,106.09
2023-03-18T19:03:32.560Z,106.27
2023-03-18T19:06:27.924Z,106.35
2023-03-18T19:09:22.044Z,106.56
2023-03-18T19:12:15.945Z,106.98
2023-03-18T19:15:01.417Z,106.62
2023-03-18T19:17:47.919Z,106.70
2023-03-18T19:20:33.354Z,107.01
2023-03-18T19:27:24.916Z,107.04
2023-03-18T19:30:21.132Z,106.91
2023-03-18T19:33:16.985Z,107.33
2023-03-18T19:36:27.558Z,107.69
2023-03-18T19:39:17.872Z,107.64
2023-03-18T19:42:02.896Z,107.47
2023-03-18T19:44:48.719Z,108.04
2023-03-18T19:47:34.283Z,108.33
2023-03-18T19:50:21.590Z,108.60
2023-03-18T19:53:15.098Z,108.52
2023-03-18T19:56:00.568Z,108.91
2023-03-18T19:58:45.929Z,109.53
2023-03-18T20:01:31.614Z,109.91
2023-03-18T20:04:18.929Z,109.46
2023-03-18T20:07:06.420Z,109.67
2023-03-18T20:09:52.454Z,109.57
2023-03-18T20:12:43.223Z,110.04
2023-03-18T20:15:29.262Z,109.81
2023-03-18T20:18:17.294Z,109.69
2023-03-18T20:21:03.309Z,109.55
2023-03-18T20:23:49.877Z,109.53
2023-03-18T20:26:35.420Z,109.95
2023-03-18T20:29:23.985Z,109.65
2023-03-18T20:32:09.658Z,110.06
2023-03-18T20:34:55.163Z,111.57
2023-03-18T20:37:40.752Z,112.06
2023-03-18T20:40:30.566Z,111.79
2023-03-18T20:43:17.489Z,111.65
2023-03-18T20:46:04.147Z,112.01
2023-03-18T20:48:49.889Z,111.16
2023-03-18T20:51:38.360Z,110.97
2023-03-18T20:54:29.989Z,111.50
2023-03-18T20:57:14.941Z,110.91
2023-03-18T21:00:00.360Z,111.48
2023-03-18T21:02:49.820Z,111.77
2023-03-18T21:05:35.296Z,111.87
2023-03-18T21:08:20.507Z,111.21
2023-03-18T21:11:06.534Z,111.32
2023-03-18T21:13:52.100Z,111.53
2023-03-18T21:16:38.028Z,111.60
2023-03-18T21:19:23.229Z,112.42
2023-03-18T21:22:11.141Z,112.03
2023-03-18T21:24:57.814Z,111.98
2023-03-18T21:27:43.265Z,112.38
2023-03-18T21:30:28.892Z,113.77
2023-03-18T21:33:27.788Z,115.03
2023-03-18T21:36:13.167Z,114.85
2023-03-18T21:38:58.130Z,114.89
2023-03-18T21:41:43.880Z,115.14
2023-03-18T21:44:29.342Z,113.90
2023-03-18T21:47:16.945Z,112.42
2023-03-18T21:50:04.412Z,112.82
2023-03-18T21:52:50.188Z,112.93
2023-03-18T21:55:35.500Z,112.44
2023-03-18T21:58:25.663Z,112.02
2023-03-18T22:01:19.400Z,112.10
2023-03-18T22:04:04.510Z,111.29
2023-03-18T22:06:49.664Z,111.00
2023-03-18T22:09:34.992Z,110.87
2023-03-18T22:12:31.070Z,112.15
2023-03-18T22:15:37.841Z,112.26
2023-03-18T22:18:24.166Z,112.18
2023-03-18T22:21:25.243Z,111.52
2023-03-18T22:24:14.038Z,112.08
2023-03-18T22:26:59.553Z,111.96
2023-03-18T22:29:44.898Z,112.26
2023-03-18T22:32:43.433Z,112.09
2023-03-18T22:35:30.010Z,112.99
2023-03-18T22:38:20.533Z,112.45
2023-03-18T22:41:06.231Z,113.38
2023-03-18T22:43:51.778Z,113.36
2023-03-18T22:46:36.906Z,114.24
2023-03-18T22:49:21.970Z,113.74
2023-03-18T22:52:11.502Z,113.66
2023-03-18T22:55:02.291Z,113.51
2023-03-18T22:57:48.368Z,114.16
2023-03-18T23:00:39.491Z,114.30
2023-03-18T23:03:36.851Z,114.50
2023-03-18T23:06:27.095Z,114.30
2023-03-18T23:09:12.898Z,114.02
2023-03-18T23:11:58.328Z,114.25
2023-03-18T23:14:43.583Z,113.04
2023-03-18T23:17:28.773Z,113.56
2023-03-18T23:20:16.757Z,113.52
2023-03-18T23:23:02.205Z,112.95
2023-03-18T23:25:48.882Z,113.38
2023-03-18T23:28:43.659Z,113.26
2023-03-18T23:31:29.830Z,113.41
2023-03-18T23:34:15.481Z,116.92
2023-03-18T23:37:01.311Z,118.24
2023-03-18T23:39:46.618Z,116.73
2023-03-18T23:42:32.308Z,116.08
2023-03-18T23:45:17.783Z,115.57
2023-03-18T23:48:04.081Z,117.09
2023-03-18T23:50:49.595Z,115.73
2023-03-18T23:53:34.729Z,115.72
2023-03-18T23:56:20.569Z,115.78
2023-03-18T23:59:06.275Z,115.85
